Time,TemperatureF,DewpointF,PressureIn,WindDirection,WindDirectionDegrees,WindSpeedMPH,WindSpeedGustMPH,Humidity,HourlyPrecipIn,Conditions,Clouds,dailyrainin,SoftwareType,DateUTC
2013-05-01 00:00:00,53.2,52.9,30.14,ENE,75,11.0,12.0,99,0.00,,---,0.00,VWS V14.01,2013-05-01 04:00:00,
2013-05-01 00:01:00,53.2,52.9,30.14,ESE,104,12.0,12.0,99,0.00,,---,0.00,VWS V14.01,2013-05-01 04:01:00,
2013-05-01 00:06:00,53.1,52.8,30.14,East,89,7.0,13.0,99,0.00,,---,0.00,VWS V14.01,2013-05-01 04:06:00,
2013-05-01 00:11:00,53.0,52.7,30.14,SE,141,8.0,9.0,99,0.00,,---,0.00,VWS V14.01,2013-05-01 04:11:00,
2013-05-01 00:16:00,52.9,52.6,30.14,ESE,118,2.0,8.0,99,0.00,,---,0.00,VWS V14.01,2013-05-01 04:16:00,
2013-05-01 00:21:00,52.9,52.6,30.14,ESE,123,6.0,10.0,99,0.00,,---,0.00,VWS V14.01,2013-05-01 04:21:00,
2013-05-01 00:26:00,52.9,52.6,30.15,ESE,103,7.0,8.0,99,0.00,,---,0.00,VWS V14.01,2013-05-01 04:26:00,
2013-05-01 00:31:00,53.0,52.7,30.15,East,93,5.0,11.0,99,0.00,,---,0.00,VWS V14.01,2013-05-01 04:31:00,
2013-05-01 00:36:00,53.0,52.7,30.15,ESE,103,4.0,11.0,99,0.00,,---,0.00,VWS V14.01,2013-05-01 04:36:00,
2013-05-01 00:41:00,52.9,52.6,30.15,ESE,112,3.0,8.0,99,0.00,,---,0.00,VWS V14.01,2013-05-01 04:41:00,
2013-05-01 00:46:00,52.9,52.6,30.15,SE,143,9.0,10.0,99,0.00,,---,0.00,VWS V14.01,2013-05-01 04:46:00,
2013-05-01 00:51:00,53.0,52.7,30.15,ESE,102,5.0,11.0,99,0.00,,---,0.00,VWS V14.01,2013-05-01 04:51:00,
2013-05-01 00:56:00,53.0,52.5,30.15,ESE,114,7.0,11.0,98,0.00,,---,0.00,VWS V14.01,2013-05-01 04:56:00,
2013-05-01 01:01:00,53.0,52.5,30.15,ESE,118,6.0,8.0,98,0.00,,---,0.00,VWS V14.01,2013-05-01 05:01:00,
2013-05-01 01:06:00,53.0,52.7,30.15,ESE,120,11.0,13.0,99,0.00,,---,0.00,VWS V14.01,2013-05-01 05:06:00,
2013-05-01 01:11:00,52.8,52.5,30.15,ESE,104,4.0,14.0,99,0.00,,---,0.00,VWS V14.01,2013-05-01 05:11:00,
2013-05-01 01:16:00,52.7,52.4,30.15,East,95,8.0,13.0,99,0.00,,---,0.00,VWS V14.01,2013-05-01 05:16:00,
2013-05-01 01:21:00,52.6,52.3,30.15,ESE,119,6.0,9.0,99,0.00,,---,0.00,VWS V14.01,2013-05-01 05:21:00,
2013-05-01 01:26:00,52.6,52.3,30.15,ESE,116,3.0,8.0,99,0.00,,---,0.00,VWS V14.01,2013-05-01 05:26:00,
2013-05-01 01:31:00,52.6,52.3,30.15,East,95,4.0,7.0,99,0.00,,---,0.00,VWS V14.01,2013-05-01 05:31:00,
2013-05-01 01:36:00,52.6,52.3,30.14,ESE,112,3.0,7.0,99,0.00,,---,0.00,VWS V14.01,2013-05-01 05:36:00,
2013-05-01 01:41:00,52.6,52.3,30.14,East,97,8.0,11.0,99,0.00,,---,0.00,VWS V14.01,2013-05-01 05:41:00,
2013-05-01 01:46:00,52.4,52.1,30.14,East,91,9.0,10.0,99,0.00,,---,0.00,VWS V14.01,2013-05-01 05:46:00,
2013-05-01 01:51:00,52.2,51.9,30.15,SE,145,8.0,10.0,99,0.00,,---,0.00,VWS V14.01,2013-05-01 05:51:00,
2013-05-01 01:56:00,52.1,51.8,30.15,East,95,2.0,9.0,99,0.00,,---,0.00,VWS V14.01,2013-05-01 05:56:00,
2013-05-01 02:01:00,52.0,51.7,30.15,East,83,5.0,10.0,99,0.00,,---,0.00,VWS V14.01,2013-05-01 06:01:00,
2013-05-01 02:06:00,52.0,51.7,30.15,ESE,114,5.0,9.0,99,0.00,,---,0.00,VWS V14.01,2013-05-01 06:06:00,
2013-05-01 02:11:00,51.9,51.6,30.15,ESE,116,6.0,7.0,99,0.00,,---,0.00,VWS V14.01,2013-05-01 06:11:00,
2013-05-01 02:16:00,51.8,51.5,30.14,SE,143,9.0,9.0,99,0.00,,---,0.00,VWS V14.01,2013-05-01 06:16:00,
2013-05-01 02:21:00,51.6,51.3,30.14,East,101,9.0,11.0,99,0.00,,---,0.00,VWS V14.01,2013-05-01 06:21:00,
2013-05-01 02:26:00,51.3,51.0,30.14,East,85,7.0,9.0,99,0.00,,---,0.00,VWS V14.01,2013-05-01 06:26:00,
2013-05-01 02:31:00,51.3,51.3,30.14,ESE,122,6.0,7.0,100,0.00,,---,0.00,VWS V14.01,2013-05-01 06:31:00,
2013-05-01 02:36:00,51.2,51.2,30.14,East,85,5.0,6.0,100,0.00,,---,0.00,VWS V14.01,2013-05-01 06:36:00,
2013-05-01 02:41:00,51.2,51.2,30.14,ESE,113,7.0,8.0,100,0.00,,---,0.00,VWS V14.01,2013-05-01 06:41:00,
2013-05-01 02:46:00,51.1,51.1,30.14,SE,126,10.0,10.0,100,0.00,,---,0.00,VWS V14.01,2013-05-01 06:46:00,
2013-05-01 02:51:00,51.0,51.0,30.14,SE,124,8.0,11.0,100,0.00,,---,0.00,VWS V14.01,2013-05-01 06:51:00,
2013-05-01 02:56:00,51.0,51.0,30.14,East,88,4.0,6.0,100,0.00,,---,0.00,VWS V14.01,2013-05-01 06:56:00,
2013-05-01 03:01:00,50.8,50.8,30.14,East,85,4.0,7.0,100,0.00,,---,0.00,VWS V14.01,2013-05-01 07:01:00,
2013-05-01 03:06:00,50.8,50.8,30.13,SE,128,5.0,9.0,100,0.00,,---,0.00,VWS V14.01,2013-05-01 07:06:00,
2013-05-01 03:11:00,50.7,50.7,30.13,ESE,120,10.0,10.0,100,0.00,,---,0.00,VWS V14.01,2013-05-01 07:11:00,
2013-05-01 03:16:00,50.6,50.6,30.13,ESE,118,7.0,9.0,100,0.00,,---,0.00,VWS V14.01,2013-05-01 07:16:00,
2013-05-01 03:21:00,50.6,50.6,30.14,ESE,106,5.0,9.0,100,0.00,,---,0.00,VWS V14.01,2013-05-01 07:21:00,
2013-05-01 03:26:00,50.5,50.5,30.14,ESE,118,1.0,9.0,100,0.00,,---,0.00,VWS V14.01,2013-05-01 07:26:00,
2013-05-01 03:31:00,50.5,50.5,30.14,SE,138,3.0,7.0,100,0.00,,---,0.00,VWS V14.01,2013-05-01 07:31:00,
2013-05-01 03:36:00,50.4,50.4,30.14,ESE,104,5.0,8.0,100,0.00,,---,0.00,VWS V14.01,2013-05-01 07:36:00,
2013-05-01 03:41:00,50.4,50.4,30.14,East,85,5.0,5.0,100,0.00,,---,0.00,VWS V14.01,2013-05-01 07:41:00,
2013-05-01 03:46:00,50.3,50.3,30.13,East,97,2.0,5.0,100,0.00,,---,0.00,VWS V14.01,2013-05-01 07:46:00,
2013-05-01 03:51:00,50.3,50.3,30.13,SE,125,3.0,3.0,100,0.00,,---,0.00,VWS V14.01,2013-05-01 07:51:00,
2013-05-01 03:56:00,50.1,50.1,30.13,ESE,120,1.0,5.0,100,0.00,,---,0.00,VWS V14.01,2013-05-01 07:56:00,
2013-05-01 04:01:00,50.1,50.1,30.13,ESE,122,2.0,3.0,100,0.00,,---,0.00,VWS V14.01,2013-05-01 08:01:00,
2013-05-01 04:06:00,50.0,50.0,30.13,ESE,111,2.0,5.0,100,0.00,,---,0.00,VWS V14.01,2013-05-01 08:06:00,
2013-05-01 04:11:00,50.0,50.0,30.13,ESE,120,6.0,6.0,100,0.00,,---,0.00,VWS V14.01,2013-05-01 08:11:00,
2013-05-01 04:16:00,49.8,49.8,30.13,East,85,5.0,8.0,100,0.00,,---,0.00,VWS V14.01,2013-05-01 08:16:00,
2013-05-01 04:21:00,49.7,49.7,30.13,ESE,117,7.0,8.0,100,0.00,,---,0.00,VWS V14.01,2013-05-01 08:21:00,
2013-05-01 04:26:00,49.6,49.6,30.14,ESE,122,8.0,9.0,100,0.00,,---,0.00,VWS V14.01,2013-05-01 08:26:00,
2013-05-01 04:31:00,49.5,49.5,30.13,ESE,110,8.0,8.0,100,0.00,,---,0.00,VWS V14.01,2013-05-01 08:31:00,
2013-05-01 04:36:00,49.4,49.4,30.13,ESE,112,5.0,9.0,100,0.00,,---,0.00,VWS V14.01,2013-05-01 08:36:00,
2013-05-01 04:41:00,49.3,49.3,30.13,SSE,153,7.0,7.0,100,0.00,,---,0.00,VWS V14.01,2013-05-01 08:41:00,
2013-05-01 04:46:00,49.3,49.3,30.13,ESE,107,7.0,7.0,100,0.00,,---,0.00,VWS V14.01,2013-05-01 08:46:00,
2013-05-01 04:51:00,49.3,49.3,30.13,ESE,116,5.0,8.0,100,0.00,,---,0.00,VWS V14.01,2013-05-01 08:51:00,
2013-05-01 04:56:00,49.2,49.2,30.13,ESE,120,3.0,6.0,100,0.00,,---,0.00,VWS V14.01,2013-05-01 08:56:00,
2013-05-01 05:01:00,49.2,49.2,30.13,SE,124,5.0,6.0,100,0.00,,---,0.00,VWS V14.01,2013-05-01 09:01:00,
2013-05-01 05:06:00,49.1,49.1,30.13,ESE,109,2.0,7.0,100,0.00,,---,0.00,VWS V14.01,2013-05-01 09:06:00,
2013-05-01 05:11:00,49.1,49.1,30.13,East,97,3.0,5.0,100,0.00,,---,0.00,VWS V14.01,2013-05-01 09:11:00,
2013-05-01 05:16:00,49.1,49.1,30.13,ESE,113,2.0,3.0,100,0.00,,---,0.00,VWS V14.01,2013-05-01 09:16:00,
2013-05-01 05:21:00,49.0,49.0,30.13,East,79,2.0,4.0,100,0.00,,---,0.00,VWS V14.01,2013-05-01 09:21:00,
2013-05-01 05:26:00,49.0,49.0,30.13,ESE,107,7.0,7.0,100,0.00,,---,0.00,VWS V14.01,2013-05-01 09:26:00,
2013-05-01 05:31:00,49.0,49.0,30.13,SE,138,4.0,5.0,100,0.00,,---,0.00,VWS V14.01,2013-05-01 09:31:00,
2013-05-01 05:36:00,49.0,49.0,30.13,SE,127,2.0,3.0,100,0.00,,---,0.00,VWS V14.01,2013-05-01 09:36:00,
2013-05-01 05:41:00,48.8,48.8,30.13,ESE,120,2.0,3.0,100,0.00,,---,0.00,VWS V14.01,2013-05-01 09:41:00,
2013-05-01 05:46:00,48.7,48.7,30.13,ESE,116,2.0,8.0,100,0.00,,---,0.00,VWS V14.01,2013-05-01 09:46:00,
2013-05-01 05:51:00,48.6,48.6,30.13,ESE,102,5.0,6.0,100,0.00,,---,0.00,VWS V14.01,2013-05-01 09:51:00,
2013-05-01 05:56:00,48.6,48.6,30.13,SE,124,3.0,5.0,100,0.00,,---,0.00,VWS V14.01,2013-05-01 09:56:00,
2013-05-01 06:01:00,48.6,48.6,30.14,SE,139,1.0,2.0,100,0.00,,---,0.00,VWS V14.01,2013-05-01 10:01:00,
2013-05-01 06:06:00,48.7,48.7,30.14,ESE,118,3.0,6.0,100,0.00,,---,0.00,VWS V14.01,2013-05-01 10:06:00,
2013-05-01 06:11:00,48.7,48.7,30.14,ESE,120,1.0,3.0,100,0.00,,---,0.00,VWS V14.01,2013-05-01 10:11:00,
2013-05-01 06:16:00,48.7,48.7,30.14,ESE,116,1.0,2.0,100,0.00,,---,0.00,VWS V14.01,2013-05-01 10:16:00,
2013-05-01 06:21:00,48.5,48.5,30.14,East,79,4.0,4.0,100,0.00,,---,0.00,VWS V14.01,2013-05-01 10:21:00,
2013-05-01 06:26:00,48.2,48.2,30.14,East,99,2.0,3.0,100,0.00,,---,0.00,VWS V14.01,2013-05-01 10:26:00,
2013-05-01 06:31:00,48.2,48.2,30.14,SE,130,5.0,5.0,100,0.00,,---,0.00,VWS V14.01,2013-05-01 10:31:00,
2013-05-01 06:36:00,48.1,48.1,30.14,SSE,149,2.0,3.0,100,0.00,,---,0.00,VWS V14.01,2013-05-01 10:36:00,
2013-05-01 06:41:00,47.9,47.9,30.14,ESE,117,2.0,2.0,100,0.00,,---,0.00,VWS V14.01,2013-05-01 10:41:00,
2013-05-01 06:46:00,48.0,48.0,30.14,East,81,1.0,5.0,100,0.00,,---,0.00,VWS V14.01,2013-05-01 10:46:00,
2013-05-01 06:51:00,47.9,47.9,30.14,SE,127,2.0,4.0,100,0.00,,---,0.00,VWS V14.01,2013-05-01 10:51:00,
2013-05-01 06:56:00,47.8,47.8,30.14,ESE,121,2.0,5.0,100,0.00,,---,0.00,VWS V14.01,2013-05-01 10:56:00,
2013-05-01 07:01:00,47.7,47.7,30.14,ESE,118,0.0,2.0,100,0.00,,---,0.00,VWS V14.01,2013-05-01 11:01:00,
2013-05-01 07:06:00,47.8,47.8,30.14,ESE,118,1.0,1.0,100,0.00,,---,0.00,VWS V14.01,2013-05-01 11:06:00,
2013-05-01 07:11:00,48.0,48.0,30.15,ESE,118,1.0,1.0,100,0.00,,---,0.00,VWS V14.01,2013-05-01 11:11:00,
2013-05-01 07:16:00,48.2,48.2,30.15,ESE,116,1.0,1.0,100,0.00,,---,0.00,VWS V14.01,2013-05-01 11:16:00,
2013-05-01 07:21:00,48.3,48.0,30.15,East,82,3.0,4.0,99,0.00,,---,0.00,VWS V14.01,2013-05-01 11:21:00,
2013-05-01 07:26:00,48.4,48.1,30.15,East,90,1.0,2.0,99,0.00,,---,0.00,VWS V14.01,2013-05-01 11:26:00,
2013-05-01 07:31:00,48.4,48.1,30.16,ESE,115,3.0,3.0,99,0.00,,---,0.00,VWS V14.01,2013-05-01 11:31:00,
2013-05-01 07:36:00,48.5,48.2,30.16,ESE,115,3.0,3.0,99,0.00,,---,0.00,VWS V14.01,2013-05-01 11:36:00,
2013-05-01 07:41:00,48.6,48.1,30.16,North,357,0.0,2.0,98,0.00,,---,0.00,VWS V14.01,2013-05-01 11:41:00,
2013-05-01 07:46:00,48.5,48.0,30.16,South,175,1.0,2.0,98,0.00,,---,0.00,VWS V14.01,2013-05-01 11:46:00,
2013-05-01 07:51:00,48.5,47.7,30.17,SSE,164,2.0,2.0,97,0.00,,---,0.00,VWS V14.01,2013-05-01 11:51:00,
2013-05-01 07:56:00,48.6,47.8,30.17,ESE,117,3.0,5.0,97,0.00,,---,0.00,VWS V14.01,2013-05-01 11:56:00,
2013-05-01 08:01:00,48.8,48.3,30.17,ESE,120,0.0,1.0,98,0.00,,---,0.00,VWS V14.01,2013-05-01 12:01:00,
2013-05-01 08:06:00,48.9,48.1,30.17,SSE,167,0.0,2.0,97,0.00,,---,0.00,VWS V14.01,2013-05-01 12:06:00,
2013-05-01 08:11:00,48.8,47.7,30.17,ESE,122,3.0,5.0,96,0.00,,---,0.00,VWS V14.01,2013-05-01 12:11:00,
2013-05-01 08:16:00,49.2,48.4,30.17,SSE,149,1.0,1.0,97,0.00,,---,0.00,VWS V14.01,2013-05-01 12:16:00,
2013-05-01 08:21:00,49.5,48.4,30.17,ESE,114,3.0,5.0,96,0.00,,---,0.00,VWS V14.01,2013-05-01 12:21:00,
2013-05-01 08:26:00,49.7,48.3,30.17,East,100,3.0,4.0,95,0.00,,---,0.00,VWS V14.01,2013-05-01 12:26:00,
2013-05-01 08:31:00,50.1,48.4,30.17,NE,41,3.0,7.0,94,0.00,,---,0.00,VWS V14.01,2013-05-01 12:31:00,
2013-05-01 08:36:00,50.5,48.8,30.17,ESE,122,7.0,8.0,94,0.00,,---,0.00,VWS V14.01,2013-05-01 12:36:00,
2013-05-01 08:41:00,50.6,48.7,30.17,ESE,104,1.0,7.0,93,0.00,,---,0.00,VWS V14.01,2013-05-01 12:41:00,
2013-05-01 08:46:00,50.7,48.2,30.18,NE,50,1.0,4.0,91,0.00,,---,0.00,VWS V14.01,2013-05-01 12:46:00,
2013-05-01 08:51:00,51.1,48.9,30.18,SE,131,2.0,5.0,92,0.00,,---,0.00,VWS V14.01,2013-05-01 12:51:00,
2013-05-01 08:56:00,51.5,49.3,30.18,ESE,104,2.0,4.0,92,0.00,,---,0.00,VWS V14.01,2013-05-01 12:56:00,
2013-05-01 09:01:00,51.3,48.8,30.18,ENE,69,3.0,3.0,91,0.00,,---,0.00,VWS V14.01,2013-05-01 13:01:00,
2013-05-01 09:06:00,51.8,49.3,30.18,ESE,112,1.0,5.0,91,0.00,,---,0.00,VWS V14.01,2013-05-01 13:06:00,
2013-05-01 09:11:00,51.2,48.7,30.18,ESE,109,0.0,5.0,91,0.00,,---,0.00,VWS V14.01,2013-05-01 13:11:00,
2013-05-01 09:16:00,52.1,49.3,30.18,ESE,111,6.0,6.0,90,0.00,,---,0.00,VWS V14.01,2013-05-01 13:16:00,
2013-05-01 09:21:00,51.9,48.5,30.18,SE,124,5.0,8.0,88,0.00,,---,0.00,VWS V14.01,2013-05-01 13:21:00,
2013-05-01 09:26:00,51.6,48.8,30.19,ESE,110,3.0,5.0,90,0.00,,---,0.00,VWS V14.01,2013-05-01 13:26:00,
2013-05-01 09:31:00,51.8,48.7,30.19,ENE,74,5.0,10.0,89,0.00,,---,0.00,VWS V14.01,2013-05-01 13:31:00,
2013-05-01 09:36:00,52.8,49.0,30.19,SE,131,7.0,9.0,87,0.00,,---,0.00,VWS V14.01,2013-05-01 13:36:00,
2013-05-01 09:41:00,52.7,49.2,30.19,NNE,15,0.0,5.0,88,0.00,,---,0.00,VWS V14.01,2013-05-01 13:41:00,
2013-05-01 09:46:00,53.2,49.4,30.19,East,91,5.0,7.0,87,0.00,,---,0.00,VWS V14.01,2013-05-01 13:46:00,
2013-05-01 09:51:00,52.9,49.5,30.20,South,172,6.0,7.0,88,0.00,,---,0.00,VWS V14.01,2013-05-01 13:51:00,
2013-05-01 09:56:00,53.1,49.0,30.20,East,83,4.0,7.0,86,0.00,,---,0.00,VWS V14.01,2013-05-01 13:56:00,
2013-05-01 10:01:00,53.2,49.1,30.21,East,98,8.0,9.0,86,0.00,,---,0.00,VWS V14.01,2013-05-01 14:01:00,
2013-05-01 10:06:00,52.9,48.8,30.21,East,83,5.0,8.0,86,0.00,,---,0.00,VWS V14.01,2013-05-01 14:06:00,
2013-05-01 10:11:00,52.8,49.0,30.21,East,91,4.0,8.0,87,0.00,,---,0.00,VWS V14.01,2013-05-01 14:11:00,
2013-05-01 10:16:00,52.7,48.6,30.22,South,178,4.0,7.0,86,0.00,,---,0.00,VWS V14.01,2013-05-01 14:16:00,
2013-05-01 10:21:00,52.5,48.8,30.21,ESE,109,3.0,6.0,87,0.00,,---,0.00,VWS V14.01,2013-05-01 14:21:00,
2013-05-01 10:26:00,53.7,49.6,30.21,ESE,120,1.0,3.0,86,0.00,,---,0.00,VWS V14.01,2013-05-01 14:26:00,
2013-05-01 10:31:00,55.0,49.9,30.21,ESE,111,3.0,8.0,83,0.00,,---,0.00,VWS V14.01,2013-05-01 14:31:00,
2013-05-01 10:36:00,55.1,50.4,30.21,SE,131,3.0,7.0,84,0.00,,---,0.00,VWS V14.01,2013-05-01 14:36:00,
2013-05-01 10:41:00,55.9,51.1,30.20,SSE,152,1.0,5.0,84,0.00,,---,0.00,VWS V14.01,2013-05-01 14:41:00,
2013-05-01 10:46:00,57.2,50.8,30.20,East,84,2.0,7.0,79,0.00,,---,0.00,VWS V14.01,2013-05-01 14:46:00,
2013-05-01 10:51:00,56.8,49.7,30.20,NE,49,2.0,7.0,77,0.00,,---,0.00,VWS V14.01,2013-05-01 14:51:00,
2013-05-01 10:56:00,55.9,50.2,30.21,East,91,9.0,13.0,81,0.00,,---,0.00,VWS V14.01,2013-05-01 14:56:00,
2013-05-01 11:01:00,57.6,51.1,30.21,ESE,109,5.0,8.0,79,0.00,,---,0.00,VWS V14.01,2013-05-01 15:01:00,
2013-05-01 11:06:00,58.3,52.2,30.21,ESE,119,5.0,6.0,80,0.00,,---,0.00,VWS V14.01,2013-05-01 15:06:00,
2013-05-01 11:11:00,58.4,50.5,30.22,ESE,122,3.0,4.0,75,0.00,,---,0.00,VWS V14.01,2013-05-01 15:11:00,
2013-05-01 11:16:00,59.4,50.0,30.22,ESE,111,1.0,7.0,71,0.00,,---,0.00,VWS V14.01,2013-05-01 15:16:00,
2013-05-01 11:21:00,59.9,50.5,30.22,SE,124,8.0,9.0,71,0.00,,---,0.00,VWS V14.01,2013-05-01 15:21:00,
2013-05-01 11:26:00,59.0,50.7,30.22,SE,128,2.0,8.0,74,0.00,,---,0.00,VWS V14.01,2013-05-01 15:26:00,
2013-05-01 11:31:00,58.9,50.3,30.22,SE,128,11.0,11.0,73,0.00,,---,0.00,VWS V14.01,2013-05-01 15:31:00,
2013-05-01 11:36:00,59.8,50.4,30.22,SE,143,11.0,11.0,71,0.00,,---,0.00,VWS V14.01,2013-05-01 15:36:00,
2013-05-01 11:41:00,59.9,50.9,30.22,East,101,5.0,8.0,72,0.00,,---,0.00,VWS V14.01,2013-05-01 15:41:00,
2013-05-01 11:46:00,59.2,50.2,30.22,ESE,116,7.0,11.0,72,0.00,,---,0.00,VWS V14.01,2013-05-01 15:46:00,
2013-05-01 11:51:00,59.6,51.3,30.21,NNE,15,3.0,4.0,74,0.00,,---,0.00,VWS V14.01,2013-05-01 15:51:00,
2013-05-01 11:56:00,59.5,51.2,30.21,SE,124,7.0,10.0,74,0.00,,---,0.00,VWS V14.01,2013-05-01 15:56:00,
2013-05-01 12:01:00,60.4,51.7,30.21,SE,128,9.0,10.0,73,0.00,,---,0.00,VWS V14.01,2013-05-01 16:01:00,
2013-05-01 12:06:00,59.8,51.5,30.20,ESE,111,2.0,5.0,74,0.00,,---,0.00,VWS V14.01,2013-05-01 16:06:00,
2013-05-01 12:11:00,59.3,52.1,30.20,ESE,104,7.0,8.0,77,0.00,,---,0.00,VWS V14.01,2013-05-01 16:11:00,
2013-05-01 12:16:00,59.1,50.8,30.20,East,83,4.0,5.0,74,0.00,,---,0.00,VWS V14.01,2013-05-01 16:16:00,
2013-05-01 12:21:00,58.1,49.9,30.20,East,93,3.0,5.0,74,0.00,,---,0.00,VWS V14.01,2013-05-01 16:21:00,
2013-05-01 12:26:00,58.0,50.8,30.20,East,93,5.0,8.0,77,0.00,,---,0.00,VWS V14.01,2013-05-01 16:26:00,
2013-05-01 12:31:00,59.2,50.6,30.20,East,90,9.0,9.0,73,0.00,,---,0.00,VWS V14.01,2013-05-01 16:31:00,
2013-05-01 12:36:00,58.1,50.2,30.19,ESE,106,4.0,4.0,75,0.00,,---,0.00,VWS V14.01,2013-05-01 16:36:00,
2013-05-01 12:41:00,57.0,49.5,30.20,North,357,4.0,6.0,76,0.00,,---,0.00,VWS V14.01,2013-05-01 16:41:00,
2013-05-01 12:46:00,58.7,51.5,30.19,ESE,119,3.0,8.0,77,0.00,,---,0.00,VWS V14.01,2013-05-01 16:46:00,
2013-05-01 12:51:00,59.5,50.5,30.19,ESE,120,5.0,8.0,72,0.00,,---,0.00,VWS V14.01,2013-05-01 16:51:00,
2013-05-01 12:56:00,59.8,50.0,30.19,SE,125,14.0,14.0,70,0.00,,---,0.00,VWS V14.01,2013-05-01 16:56:00,
2013-05-01 13:01:00,59.5,51.2,30.20,East,99,8.0,8.0,74,0.00,,---,0.00,VWS V14.01,2013-05-01 17:01:00,
2013-05-01 13:06:00,59.1,50.8,30.20,East,101,4.0,6.0,74,0.00,,---,0.00,VWS V14.01,2013-05-01 17:06:00,
2013-05-01 13:11:00,60.6,51.9,30.20,East,95,4.0,9.0,73,0.00,,---,0.00,VWS V14.01,2013-05-01 17:11:00,
2013-05-01 13:16:00,59.6,50.6,30.20,East,87,9.0,9.0,72,0.00,,---,0.00,VWS V14.01,2013-05-01 17:16:00,
2013-05-01 13:21:00,59.9,50.5,30.21,East,91,7.0,11.0,71,0.00,,---,0.00,VWS V14.01,2013-05-01 17:21:00,
2013-05-01 13:26:00,58.6,50.7,30.21,East,86,7.0,11.0,75,0.00,,---,0.00,VWS V14.01,2013-05-01 17:26:00,
2013-05-01 13:31:00,58.8,50.2,30.21,SE,139,9.0,9.0,73,0.00,,---,0.00,VWS V14.01,2013-05-01 17:31:00,
2013-05-01 13:35:00,58.7,49.3,30.21,ESE,105,10.0,10.0,71,0.00,,---,0.00,VWS V14.01,2013-05-01 17:35:00,
2013-05-01 13:40:00,58.5,50.2,30.21,ESE,114,5.0,5.0,74,0.00,,---,0.00,VWS V14.01,2013-05-01 17:40:00,
2013-05-01 13:45:00,59.8,50.0,30.21,SE,130,8.0,10.0,70,0.00,,---,0.00,VWS V14.01,2013-05-01 17:45:00,
2013-05-01 13:50:00,58.1,49.1,30.21,East,85,15.0,19.0,72,0.00,,---,0.00,VWS V14.01,2013-05-01 17:50:00,
2013-05-01 13:55:00,57.3,49.8,30.21,SSE,158,8.0,8.0,76,0.00,,---,0.00,VWS V14.01,2013-05-01 17:55:00,
2013-05-01 14:00:00,58.7,50.1,30.22,ESE,102,10.0,11.0,73,0.00,,---,0.00,VWS V14.01,2013-05-01 18:00:00,
2013-05-01 14:05:00,58.4,49.4,30.21,East,96,8.0,10.0,72,0.00,,---,0.00,VWS V14.01,2013-05-01 18:05:00,
2013-05-01 14:10:00,58.6,49.6,30.22,South,178,8.0,8.0,72,0.00,,---,0.00,VWS V14.01,2013-05-01 18:10:00,
2013-05-01 14:15:00,57.7,48.8,30.21,SE,137,8.0,10.0,72,0.00,,---,0.00,VWS V14.01,2013-05-01 18:15:00,
2013-05-01 14:20:00,58.6,49.6,30.21,ESE,109,6.0,9.0,72,0.00,,---,0.00,VWS V14.01,2013-05-01 18:20:00,
2013-05-01 14:25:00,59.2,48.7,30.21,East,97,8.0,13.0,68,0.00,,---,0.00,VWS V14.01,2013-05-01 18:25:00,
2013-05-01 14:30:00,58.8,49.4,30.21,SE,143,11.0,12.0,71,0.00,,---,0.00,VWS V14.01,2013-05-01 18:30:00,
2013-05-01 14:35:00,58.7,49.3,30.21,ESE,104,7.0,10.0,71,0.00,,---,0.00,VWS V14.01,2013-05-01 18:35:00,
2013-05-01 14:40:00,58.8,49.0,30.20,ESE,114,10.0,10.0,70,0.00,,---,0.00,VWS V14.01,2013-05-01 18:40:00,
2013-05-01 14:45:00,58.1,49.9,30.20,ESE,104,9.0,9.0,74,0.00,,---,0.00,VWS V14.01,2013-05-01 18:45:00,
2013-05-01 14:50:00,59.0,49.6,30.20,East,83,14.0,14.0,71,0.00,,---,0.00,VWS V14.01,2013-05-01 18:50:00,
2013-05-01 14:55:00,59.7,49.9,30.20,East,97,12.0,12.0,70,0.00,,---,0.00,VWS V14.01,2013-05-01 18:55:00,
2013-05-01 15:00:00,60.1,49.1,30.21,East,97,9.0,11.0,67,0.00,,---,0.00,VWS V14.01,2013-05-01 19:00:00,
2013-05-01 15:05:00,59.9,49.3,30.20,ESE,112,3.0,10.0,68,0.00,,---,0.00,VWS V14.01,2013-05-01 19:05:00,
2013-05-01 15:10:00,59.2,48.3,30.20,East,87,4.0,15.0,67,0.00,,---,0.00,VWS V14.01,2013-05-01 19:10:00,
2013-05-01 15:15:00,59.0,49.2,30.20,East,99,4.0,5.0,70,0.00,,---,0.00,VWS V14.01,2013-05-01 19:15:00,
2013-05-01 15:20:00,59.0,49.2,30.20,East,93,5.0,10.0,70,0.00,,---,0.00,VWS V14.01,2013-05-01 19:20:00,
2013-05-01 15:25:00,58.5,48.0,30.20,ESE,121,3.0,8.0,68,0.00,,---,0.00,VWS V14.01,2013-05-01 19:25:00,
2013-05-01 15:30:00,59.1,48.6,30.20,East,99,1.0,5.0,68,0.00,,---,0.00,VWS V14.01,2013-05-01 19:30:00,
2013-05-01 15:35:00,59.0,48.5,30.20,ESE,113,11.0,11.0,68,0.00,,---,0.00,VWS V14.01,2013-05-01 19:35:00,
2013-05-01 15:40:00,58.7,49.0,30.20,SSE,157,8.0,8.0,70,0.00,,---,0.00,VWS V14.01,2013-05-01 19:40:00,
2013-05-01 15:45:00,58.3,47.8,30.20,SE,126,3.0,7.0,68,0.00,,---,0.00,VWS V14.01,2013-05-01 19:45:00,
2013-05-01 15:50:00,58.7,47.8,30.20,East,81,7.0,12.0,67,0.00,,---,0.00,VWS V14.01,2013-05-01 19:50:00,
2013-05-01 15:55:00,58.7,47.8,30.20,East,100,8.0,12.0,67,0.00,,---,0.00,VWS V14.01,2013-05-01 19:55:00,
2013-05-01 16:00:00,58.6,48.9,30.20,ESE,107,13.0,16.0,70,0.00,,---,0.00,VWS V14.01,2013-05-01 20:00:00,
2013-05-01 16:05:00,58.7,47.8,30.19,East,91,13.0,14.0,67,0.00,,---,0.00,VWS V14.01,2013-05-01 20:05:00,
2013-05-01 16:10:00,58.1,48.0,30.19,SE,132,10.0,11.0,69,0.00,,---,0.00,VWS V14.01,2013-05-01 20:10:00,
2013-05-01 16:15:00,58.0,48.3,30.19,SE,131,8.0,10.0,70,0.00,,---,0.00,VWS V14.01,2013-05-01 20:15:00,
2013-05-01 16:20:00,57.5,47.4,30.19,ESE,103,7.0,13.0,69,0.00,,---,0.00,VWS V14.01,2013-05-01 20:20:00,
2013-05-01 16:25:00,57.4,48.1,30.19,SE,140,8.0,8.0,71,0.00,,---,0.00,VWS V14.01,2013-05-01 20:25:00,
2013-05-01 16:30:00,57.7,48.0,30.19,NE,53,7.0,9.0,70,0.00,,---,0.00,VWS V14.01,2013-05-01 20:30:00,
2013-05-01 16:35:00,57.4,48.1,30.19,SSE,147,7.0,13.0,71,0.00,,---,0.00,VWS V14.01,2013-05-01 20:35:00,
2013-05-01 16:40:00,57.5,48.2,30.19,SE,124,8.0,8.0,71,0.00,,---,0.00,VWS V14.01,2013-05-01 20:40:00,
2013-05-01 16:45:00,57.6,48.3,30.19,East,99,10.0,10.0,71,0.00,,---,0.00,VWS V14.01,2013-05-01 20:45:00,
2013-05-01 16:50:00,57.1,48.2,30.19,ESE,103,5.0,7.0,72,0.00,,---,0.00,VWS V14.01,2013-05-01 20:50:00,
2013-05-01 16:55:00,57.5,48.6,30.19,ENE,72,6.0,8.0,72,0.00,,---,0.00,VWS V14.01,2013-05-01 20:55:00,
2013-05-01 17:00:00,56.6,47.7,30.19,NE,46,5.0,7.0,72,0.00,,---,0.00,VWS V14.01,2013-05-01 21:00:00,
2013-05-01 17:05:00,56.7,48.2,30.19,ENE,69,8.0,14.0,73,0.00,,---,0.00,VWS V14.01,2013-05-01 21:05:00,
2013-05-01 17:10:00,56.3,47.8,30.19,SE,135,10.0,11.0,73,0.00,,---,0.00,VWS V14.01,2013-05-01 21:10:00,
2013-05-01 17:15:00,56.6,48.1,30.19,SE,142,9.0,11.0,73,0.00,,---,0.00,VWS V14.01,2013-05-01 21:15:00,
2013-05-01 17:20:00,56.1,47.6,30.19,ESE,108,11.0,11.0,73,0.00,,---,0.00,VWS V14.01,2013-05-01 21:20:00,
2013-05-01 17:25:00,56.0,47.8,30.19,SE,132,8.0,10.0,74,0.00,,---,0.00,VWS V14.01,2013-05-01 21:25:00,
2013-05-01 17:30:00,55.7,47.5,30.19,SE,126,8.0,9.0,74,0.00,,---,0.00,VWS V14.01,2013-05-01 21:30:00,
2013-05-01 17:35:00,55.7,47.9,30.19,ESE,103,5.0,10.0,75,0.00,,---,0.00,VWS V14.01,2013-05-01 21:35:00,
2013-05-01 17:40:00,55.4,48.0,30.19,ESE,116,7.0,8.0,76,0.00,,---,0.00,VWS V14.01,2013-05-01 21:40:00,
2013-05-01 17:45:00,55.4,48.0,30.19,East,90,9.0,9.0,76,0.00,,---,0.00,VWS V14.01,2013-05-01 21:45:00,
2013-05-01 17:50:00,55.7,48.6,30.19,ENE,70,6.0,9.0,77,0.00,,---,0.00,VWS V14.01,2013-05-01 21:50:00,
2013-05-01 17:55:00,55.5,47.7,30.18,SE,126,16.0,16.0,75,0.00,,---,0.00,VWS V14.01,2013-05-01 21:55:00,
2013-05-01 18:00:00,55.2,48.1,30.19,ESE,121,5.0,6.0,77,0.00,,---,0.00,VWS V14.01,2013-05-01 22:00:00,
2013-05-01 18:05:00,55.0,47.9,30.18,East,87,11.0,11.0,77,0.00,,---,0.00,VWS V14.01,2013-05-01 22:05:00,
2013-05-01 18:10:00,55.0,47.6,30.18,SE,127,5.0,5.0,76,0.00,,---,0.00,VWS V14.01,2013-05-01 22:10:00,
2013-05-01 18:15:00,54.9,47.5,30.18,SE,128,6.0,7.0,76,0.00,,---,0.00,VWS V14.01,2013-05-01 22:15:00,
2013-05-01 18:20:00,54.8,48.1,30.19,East,100,2.0,4.0,78,0.00,,---,0.00,VWS V14.01,2013-05-01 22:20:00,
2013-05-01 18:25:00,54.9,48.2,30.19,SSE,147,4.0,4.0,78,0.00,,---,0.00,VWS V14.01,2013-05-01 22:25:00,
2013-05-01 18:30:00,54.6,47.9,30.19,ESE,114,2.0,3.0,78,0.00,,---,0.00,VWS V14.01,2013-05-01 22:30:00,
2013-05-01 18:35:00,54.7,48.3,30.19,ESE,107,3.0,4.0,79,0.00,,---,0.00,VWS V14.01,2013-05-01 22:35:00,
2013-05-01 18:40:00,54.4,48.0,30.19,East,92,3.0,5.0,79,0.00,,---,0.00,VWS V14.01,2013-05-01 22:40:00,
2013-05-01 18:45:00,54.0,48.0,30.18,ESE,120,11.0,13.0,80,0.00,,---,0.00,VWS V14.01,2013-05-01 22:45:00,
2013-05-01 18:50:00,53.8,48.1,30.19,ESE,119,3.0,5.0,81,0.00,,---,0.00,VWS V14.01,2013-05-01 22:50:00,
2013-05-01 18:55:00,53.7,48.0,30.19,SE,139,5.0,5.0,81,0.00,,---,0.00,VWS V14.01,2013-05-01 22:55:00,
2013-05-01 19:00:00,53.8,48.4,30.19,East,81,5.0,5.0,82,0.00,,---,0.00,VWS V14.01,2013-05-01 23:00:00,
2013-05-01 19:05:00,53.7,48.3,30.19,East,93,9.0,11.0,82,0.00,,---,0.00,VWS V14.01,2013-05-01 23:05:00,
2013-05-01 19:10:00,53.3,48.3,30.19,ESE,106,4.0,5.0,83,0.00,,---,0.00,VWS V14.01,2013-05-01 23:10:00,
2013-05-01 19:15:00,53.1,48.4,30.19,SE,128,0.0,2.0,84,0.00,,---,0.00,VWS V14.01,2013-05-01 23:15:00,
2013-05-01 19:20:00,52.9,48.2,30.19,East,92,3.0,3.0,84,0.00,,---,0.00,VWS V14.01,2013-05-01 23:20:00,
2013-05-01 19:25:00,52.9,48.8,30.19,ESE,114,6.0,6.0,86,0.00,,---,0.00,VWS V14.01,2013-05-01 23:25:00,
2013-05-01 19:30:00,52.6,48.2,30.19,East,89,4.0,9.0,85,0.00,,---,0.00,VWS V14.01,2013-05-01 23:30:00,
2013-05-01 19:35:00,52.4,48.0,30.19,ESE,104,2.0,3.0,85,0.00,,---,0.00,VWS V14.01,2013-05-01 23:35:00,
2013-05-01 19:40:00,52.3,47.9,30.19,East,92,4.0,8.0,85,0.00,,---,0.00,VWS V14.01,2013-05-01 23:40:00,
2013-05-01 19:45:00,52.1,47.4,30.19,ENE,66,4.0,7.0,84,0.00,,---,0.00,VWS V14.01,2013-05-01 23:45:00,
2013-05-01 19:50:00,52.0,47.3,30.19,East,94,2.0,3.0,84,0.00,,---,0.00,VWS V14.01,2013-05-01 23:50:00,
2013-05-01 19:55:00,51.9,47.5,30.19,East,94,7.0,9.0,85,0.00,,---,0.00,VWS V14.01,2013-05-01 23:55:00,
2013-05-01 20:00:00,51.7,47.3,30.19,SSE,153,4.0,4.0,85,0.00,,---,0.00,VWS V14.01,2013-05-02 00:00:00,
2013-05-01 20:05:00,51.6,47.6,30.19,ESE,104,8.0,14.0,86,0.00,,---,0.00,VWS V14.01,2013-05-02 00:05:00,
2013-05-01 20:10:00,51.5,47.5,30.19,East,99,2.0,2.0,86,0.00,,---,0.00,VWS V14.01,2013-05-02 00:10:00,
2013-05-01 20:15:00,51.4,47.7,30.19,East,96,8.0,8.0,87,0.00,,---,0.00,VWS V14.01,2013-05-02 00:15:00,
2013-05-01 20:20:00,51.3,47.9,30.19,East,79,1.0,5.0,88,0.00,,---,0.00,VWS V14.01,2013-05-02 00:20:00,
2013-05-01 20:25:00,51.3,47.9,30.20,East,96,13.0,13.0,88,0.00,,---,0.00,VWS V14.01,2013-05-02 00:25:00,
2013-05-01 20:30:00,51.2,47.8,30.20,East,92,5.0,8.0,88,0.00,,---,0.00,VWS V14.01,2013-05-02 00:30:00,
2013-05-01 20:35:00,51.2,48.1,30.20,ESE,115,5.0,7.0,89,0.00,,---,0.00,VWS V14.01,2013-05-02 00:35:00,
2013-05-01 20:40:00,51.1,48.0,30.20,East,92,7.0,7.0,89,0.00,,---,0.00,VWS V14.01,2013-05-02 00:40:00,
2013-05-01 20:45:00,51.1,48.0,30.20,East,85,6.0,6.0,89,0.00,,---,0.00,VWS V14.01,2013-05-02 00:45:00,
2013-05-01 20:50:00,51.0,47.9,30.20,East,93,5.0,11.0,89,0.00,,---,0.00,VWS V14.01,2013-05-02 00:50:00,
2013-05-01 20:55:00,51.0,48.2,30.20,SE,135,4.0,9.0,90,0.00,,---,0.00,VWS V14.01,2013-05-02 00:55:00,
2013-05-01 21:00:00,50.9,48.1,30.20,SE,145,5.0,9.0,90,0.00,,---,0.00,VWS V14.01,2013-05-02 01:00:00,
2013-05-01 21:05:00,50.8,48.0,30.21,ESE,105,5.0,11.0,90,0.00,,---,0.00,VWS V14.01,2013-05-02 01:05:00,
2013-05-01 21:10:00,50.7,47.9,30.21,East,101,3.0,5.0,90,0.00,,---,0.00,VWS V14.01,2013-05-02 01:10:00,
2013-05-01 21:15:00,50.7,48.2,30.21,SE,128,7.0,11.0,91,0.00,,---,0.00,VWS V14.01,2013-05-02 01:15:00,
2013-05-01 21:20:00,50.6,48.1,30.21,East,96,7.0,11.0,91,0.00,,---,0.00,VWS V14.01,2013-05-02 01:20:00,
2013-05-01 21:25:00,50.6,48.1,30.22,ESE,110,2.0,9.0,91,0.00,,---,0.00,VWS V14.01,2013-05-02 01:25:00,
2013-05-01 21:30:00,50.5,48.0,30.22,SE,145,9.0,9.0,91,0.00,,---,0.00,VWS V14.01,2013-05-02 01:30:00,
2013-05-01 21:35:00,50.5,48.3,30.22,SE,145,4.0,4.0,92,0.00,,---,0.00,VWS V14.01,2013-05-02 01:35:00,
2013-05-01 21:40:00,50.4,48.2,30.22,East,85,9.0,11.0,92,0.00,,---,0.00,VWS V14.01,2013-05-02 01:40:00,
2013-05-01 21:45:00,50.5,48.3,30.22,ESE,114,14.0,14.0,92,0.00,,---,0.00,VWS V14.01,2013-05-02 01:45:00,
2013-05-01 21:50:00,50.5,48.3,30.22,ESE,120,2.0,2.0,92,0.00,,---,0.00,VWS V14.01,2013-05-02 01:50:00,
2013-05-01 21:55:00,50.4,48.2,30.22,ESE,104,5.0,14.0,92,0.00,,---,0.00,VWS V14.01,2013-05-02 01:55:00,
2013-05-01 22:00:00,50.3,48.1,30.23,East,101,3.0,10.0,92,0.00,,---,0.00,VWS V14.01,2013-05-02 02:00:00,
2013-05-01 22:05:00,50.3,48.1,30.23,East,94,15.0,15.0,92,0.00,,---,0.00,VWS V14.01,2013-05-02 02:05:00,
2013-05-01 22:10:00,50.2,48.0,30.23,ESE,104,7.0,7.0,92,0.00,,---,0.00,VWS V14.01,2013-05-02 02:10:00,
2013-05-01 22:15:00,50.1,47.6,30.23,East,89,9.0,18.0,91,0.00,,---,0.00,VWS V14.01,2013-05-02 02:15:00,
2013-05-01 22:20:00,50.1,47.9,30.23,SE,124,7.0,8.0,92,0.00,,---,0.00,VWS V14.01,2013-05-02 02:20:00,
2013-05-01 22:25:00,50.0,47.8,30.23,East,97,1.0,15.0,92,0.00,,---,0.00,VWS V14.01,2013-05-02 02:25:00,
2013-05-01 22:30:00,49.9,47.7,30.23,South,174,10.0,15.0,92,0.00,,---,0.00,VWS V14.01,2013-05-02 02:30:00,
2013-05-01 22:35:00,49.8,47.9,30.23,East,97,7.0,7.0,93,0.00,,---,0.00,VWS V14.01,2013-05-02 02:35:00,
2013-05-01 22:40:00,49.7,47.8,30.23,SE,129,7.0,7.0,93,0.00,,---,0.00,VWS V14.01,2013-05-02 02:40:00,
2013-05-01 22:45:00,49.5,47.6,30.23,East,83,3.0,10.0,93,0.00,,---,0.00,VWS V14.01,2013-05-02 02:45:00,
2013-05-01 22:50:00,49.5,47.6,30.23,East,98,11.0,14.0,93,0.00,,---,0.00,VWS V14.01,2013-05-02 02:50:00,
2013-05-01 22:55:00,49.5,47.6,30.23,ESE,102,8.0,8.0,93,0.00,,---,0.00,VWS V14.01,2013-05-02 02:55:00,
2013-05-01 23:00:00,49.4,47.5,30.23,ESE,117,7.0,13.0,93,0.00,,---,0.00,VWS V14.01,2013-05-02 03:00:00,
2013-05-01 23:05:00,49.4,47.5,30.23,SE,139,8.0,9.0,93,0.00,,---,0.00,VWS V14.01,2013-05-02 03:05:00,
2013-05-01 23:10:00,49.4,47.5,30.23,East,82,6.0,7.0,93,0.00,,---,0.00,VWS V14.01,2013-05-02 03:10:00,
2013-05-01 23:15:00,49.5,47.8,30.23,East,91,5.0,8.0,94,0.00,,---,0.00,VWS V14.01,2013-05-02 03:15:00,
2013-05-01 23:20:00,49.5,47.8,30.23,SE,131,7.0,9.0,94,0.00,,---,0.00,VWS V14.01,2013-05-02 03:20:00,
2013-05-01 23:25:00,49.5,47.8,30.22,East,95,11.0,14.0,94,0.00,,---,0.00,VWS V14.01,2013-05-02 03:25:00,
2013-05-01 23:30:00,49.4,47.8,30.23,East,85,8.0,13.0,94,0.00,,---,0.00,VWS V14.01,2013-05-02 03:30:00,
2013-05-01 23:35:00,49.4,47.8,30.23,SE,131,9.0,11.0,94,0.00,,---,0.00,VWS V14.01,2013-05-02 03:35:00,
2013-05-01 23:40:00,49.4,47.8,30.23,East,95,8.0,11.0,94,0.00,,---,0.00,VWS V14.01,2013-05-02 03:40:00,
2013-05-01 23:45:00,49.4,47.8,30.22,ESE,120,13.0,13.0,94,0.00,,---,0.00,VWS V14.01,2013-05-02 03:45:00,
2013-05-01 23:50:00,49.4,47.8,30.22,East,94,5.0,8.0,94,0.00,,---,0.00,VWS V14.01,2013-05-02 03:50:00,
2013-05-01 23:55:00,49.4,47.8,30.23,ESE,116,8.0,10.0,94,0.00,,---,0.00,VWS V14.01,2013-05-02 03:55:00,